createdAt,value
2019-03-06T00:00:50.369Z,1.00
2019-03-06T00:03:18.836Z,1.13
2019-03-06T00:05:47.317Z,1.10
2019-03-06T00:08:15.712Z,1.30
2019-03-06T00:10:44.125Z,1.23
2019-03-06T00:13:12.523Z,1.10
2019-03-06T00:15:40.941Z,1.07
2019-03-06T00:18:09.038Z,1.23
2019-03-06T00:20:37.440Z,1.50
2019-03-06T00:23:05.904Z,1.43
2019-03-06T00:25:34.320Z,1.60
2019-03-06T00:28:02.711Z,1.63
2019-03-06T00:30:31.188Z,1.87
2019-03-06T00:32:59.587Z,1.50
2019-03-06T00:35:29.636Z,1.70
2019-03-06T00:37:58.037Z,1.40
2019-03-06T00:40:40.380Z,1.80
2019-03-06T00:43:08.448Z,1.30
2019-03-06T00:45:36.862Z,1.63
2019-03-06T00:48:05.516Z,1.50
2019-03-06T00:50:43.623Z,1.57
2019-03-06T00:53:15.837Z,1.60
2019-03-06T00:55:49.894Z,1.53
2019-03-06T00:58:18.670Z,1.60
2019-03-06T01:00:47.142Z,1.40
2019-03-06T01:03:15.709Z,1.33
2019-03-06T01:05:44.167Z,1.60
2019-03-06T01:08:12.581Z,1.20
2019-03-06T01:10:41.112Z,1.50
2019-03-06T01:13:09.883Z,1.63
2019-03-06T01:15:38.281Z,1.87
2019-03-06T01:18:06.711Z,2.13
2019-03-06T01:20:35.095Z,1.70
2019-03-06T01:23:03.973Z,1.50
2019-03-06T01:25:32.437Z,1.70
2019-03-06T01:28:01.020Z,2.03
2019-03-06T01:30:29.418Z,1.50
2019-03-06T01:33:02.107Z,1.43
2019-03-06T01:35:49.893Z,1.53
2019-03-06T01:38:37.711Z,1.93
2019-03-06T01:41:07.829Z,1.40
2019-03-06T01:43:40.521Z,1.93
2019-03-06T01:46:08.918Z,1.60
2019-03-06T01:48:37.328Z,1.47
2019-03-06T01:51:05.733Z,1.80
2019-03-06T01:53:34.133Z,2.23
2019-03-06T01:56:02.534Z,1.73
2019-03-06T01:58:30.610Z,2.57
2019-03-06T02:00:58.996Z,2.40
2019-03-06T02:03:27.404Z,2.70
2019-03-06T02:05:56.266Z,2.40
2019-03-06T02:08:24.685Z,2.47
2019-03-06T02:10:53.080Z,2.57
2019-03-06T02:13:23.501Z,2.10
2019-03-06T02:15:51.968Z,2.37
2019-03-06T02:18:20.364Z,2.50
2019-03-06T02:20:48.784Z,2.40
2019-03-06T02:23:16.912Z,2.67
2019-03-06T02:25:45.312Z,2.73
2019-03-06T02:28:13.730Z,2.63
2019-03-06T02:30:42.121Z,2.47
2019-03-06T02:33:10.532Z,3.10
2019-03-06T02:35:39.405Z,3.07
2019-03-06T02:38:07.817Z,2.67
2019-03-06T02:40:36.224Z,3.63
2019-03-06T02:43:04.688Z,3.33
2019-03-06T02:45:33.090Z,2.80
2019-03-06T02:48:01.480Z,2.77
2019-03-06T02:50:29.892Z,2.83
2019-03-06T02:52:58.290Z,2.87
2019-03-06T02:55:26.691Z,3.17
2019-03-06T02:57:59.313Z,4.00
2019-03-06T03:00:35.472Z,3.73
2019-03-06T03:03:24.394Z,4.33
2019-03-06T03:06:09.658Z,4.57
2019-03-06T03:08:38.080Z,4.17
2019-03-06T03:11:06.540Z,4.20
2019-03-06T03:13:34.961Z,4.20
2019-03-06T03:16:03.027Z,4.77
2019-03-06T03:18:31.430Z,4.83
2019-03-06T03:20:59.833Z,4.73
2019-03-06T03:23:28.234Z,4.63
2019-03-06T03:25:56.638Z,5.23
2019-03-06T03:28:24.742Z,5.73
2019-03-06T03:30:53.221Z,6.70
2019-03-06T03:33:21.697Z,5.97
2019-03-06T03:35:50.105Z,5.77
2019-03-06T03:38:18.497Z,5.63
2019-03-06T03:40:46.910Z,5.40
2019-03-06T03:43:15.304Z,5.83
2019-03-06T03:45:43.714Z,5.27
2019-03-06T03:48:12.186Z,5.47
2019-03-06T03:50:40.329Z,6.17
2019-03-06T03:53:08.734Z,6.67
2019-03-06T03:55:37.158Z,6.00
2019-03-06T03:58:05.543Z,4.90
2019-03-06T04:00:34.098Z,5.27
2019-03-06T04:03:02.558Z,6.73
2019-03-06T04:05:30.639Z,5.93
2019-03-06T04:07:59.039Z,6.07
2019-03-06T04:10:27.127Z,7.00
2019-03-06T04:12:55.589Z,6.10
2019-03-06T04:15:24.270Z,5.03
2019-03-06T04:18:38.254Z,5.60
2019-03-06T04:21:06.682Z,5.20
2019-03-06T04:23:35.069Z,5.47
2019-03-06T04:26:03.472Z,5.23
2019-03-06T04:28:31.869Z,5.23
2019-03-06T04:30:59.945Z,4.53
2019-03-06T04:33:28.713Z,4.60
2019-03-06T04:35:57.143Z,4.50
2019-03-06T04:38:25.533Z,5.07
2019-03-06T04:40:53.944Z,5.57
2019-03-06T04:43:22.336Z,4.80
2019-03-06T04:45:50.762Z,4.63
2019-03-06T04:48:19.149Z,4.40
2019-03-06T04:50:47.236Z,4.60
2019-03-06T04:53:15.633Z,4.87
2019-03-06T04:55:44.046Z,4.30
2019-03-06T04:58:31.792Z,4.80
2019-03-06T05:01:00.201Z,4.10
2019-03-06T05:03:28.588Z,4.23
2019-03-06T05:05:57.002Z,3.90
2019-03-06T05:08:44.757Z,3.27
2019-03-06T05:11:12.908Z,3.73
2019-03-06T05:13:41.317Z,3.70
2019-03-06T05:16:09.787Z,3.00
2019-03-06T05:18:40.501Z,3.20
2019-03-06T05:21:09.114Z,2.70
2019-03-06T05:23:37.508Z,2.93
2019-03-06T05:26:05.920Z,3.40
2019-03-06T05:28:34.317Z,4.23
2019-03-06T05:31:02.726Z,3.00
2019-03-06T05:33:31.116Z,3.20
2019-03-06T05:36:06.817Z,2.97
2019-03-06T05:38:52.549Z,2.60
2019-03-06T05:41:20.963Z,3.57
2019-03-06T05:43:49.358Z,2.50
2019-03-06T05:46:17.753Z,3.17
2019-03-06T05:48:46.163Z,2.90
2019-03-06T05:51:14.551Z,2.67
2019-03-06T05:53:42.962Z,2.63
2019-03-06T05:56:11.356Z,3.47
2019-03-06T05:58:39.789Z,3.20
2019-03-06T06:01:27.528Z,2.70
2019-03-06T06:03:55.932Z,2.40
2019-03-06T06:06:24.328Z,2.47
2019-03-06T06:08:52.752Z,2.43
2019-03-06T06:11:21.156Z,2.43
2019-03-06T06:13:49.564Z,2.37
2019-03-06T06:16:17.961Z,2.43
2019-03-06T06:18:46.369Z,2.20
2019-03-06T06:21:22.207Z,2.37
2019-03-06T06:23:52.297Z,2.33
2019-03-06T06:26:21.007Z,2.33
2019-03-06T06:28:49.444Z,2.13
2019-03-06T06:31:17.842Z,1.90
2019-03-06T06:33:46.259Z,1.80
2019-03-06T06:36:14.724Z,2.23
2019-03-06T06:38:44.660Z,2.00
2019-03-06T06:41:12.731Z,2.00
2019-03-06T06:43:41.148Z,1.97
2019-03-06T06:46:09.545Z,1.83
2019-03-06T06:48:37.957Z,1.87
2019-03-06T06:51:15.412Z,1.70
2019-03-06T06:54:10.394Z,1.83
2019-03-06T06:56:53.980Z,1.50
2019-03-06T06:59:25.462Z,1.70
2019-03-06T07:02:18.863Z,1.57
2019-03-06T07:05:00.125Z,1.57
2019-03-06T07:07:30.314Z,1.50
2019-03-06T07:10:00.357Z,1.80
2019-03-06T07:12:35.863Z,1.60
2019-03-06T07:15:06.554Z,1.40
2019-03-06T07:17:48.651Z,1.70
2019-03-06T07:20:30.025Z,1.40
2019-03-06T07:23:01.342Z,1.60
2019-03-06T07:25:50.743Z,1.20
2019-03-06T07:28:20.873Z,0.95
2019-03-06T07:30:50.604Z,1.00
2019-03-06T07:33:26.347Z,1.02
2019-03-06T07:38:55.683Z,1.40
2019-03-06T07:41:28.393Z,0.90
2019-03-06T07:43:58.432Z,0.98
2019-03-06T07:46:28.474Z,1.12
2019-03-06T07:49:01.216Z,0.90
2019-03-06T07:51:40.012Z,1.00
2019-03-06T07:57:11.017Z,0.90
2019-03-06T07:59:39.519Z,0.80
2019-03-06T08:02:13.828Z,0.60
2019-03-06T08:04:50.348Z,0.60
2019-03-06T08:07:18.745Z,0.68
2019-03-06T08:09:47.140Z,0.60
2019-03-06T08:12:22.988Z,0.80
2019-03-06T08:15:11.332Z,0.47
2019-03-06T08:17:44.695Z,0.72
2019-03-06T08:20:21.238Z,0.40
2019-03-06T08:22:57.060Z,0.40
2019-03-06T08:25:36.233Z,0.53
2019-03-06T08:28:04.704Z,0.90
2019-03-06T08:30:34.755Z,0.75
2019-03-06T08:33:03.162Z,0.50
2019-03-06T08:35:31.569Z,0.60
2019-03-06T08:37:59.976Z,0.45
2019-03-06T08:40:28.400Z,0.60
2019-03-06T08:42:56.801Z,0.60
2019-03-06T08:45:35.665Z,1.10
2019-03-06T08:48:06.325Z,0.60
2019-03-06T08:50:36.381Z,0.53
2019-03-06T08:53:12.176Z,0.60
2019-03-06T08:55:48.070Z,0.50
2019-03-06T08:58:27.104Z,0.60
2019-03-06T09:01:02.787Z,0.53
2019-03-06T09:03:32.673Z,0.50
2019-03-06T09:06:05.574Z,0.50
2019-03-06T09:08:51.800Z,0.50
2019-03-06T09:11:21.857Z,0.50
2019-03-06T09:13:54.844Z,0.68
2019-03-06T09:16:39.872Z,0.47
2019-03-06T09:19:16.020Z,0.50
2019-03-06T09:21:48.882Z,0.50
2019-03-06T09:24:35.329Z,0.50
2019-03-06T09:27:08.139Z,0.60
2019-03-06T09:29:44.225Z,0.50
2019-03-06T09:32:23.042Z,0.40
2019-03-06T09:34:53.116Z,0.40
2019-03-06T09:37:26.257Z,0.40
2019-03-06T09:40:14.516Z,0.40
2019-03-06T09:42:50.154Z,0.47
2019-03-06T09:45:22.843Z,0.60
2019-03-06T09:47:58.693Z,0.30
2019-03-06T09:50:28.745Z,0.47
2019-03-06T09:52:58.817Z,0.50
2019-03-06T09:55:28.849Z,0.40
2019-03-06T09:57:58.940Z,2.40
2019-03-06T10:00:40.917Z,0.40
2019-03-06T10:03:10.968Z,0.40
2019-03-06T10:05:55.706Z,0.50
2019-03-06T10:08:40.469Z,0.45
2019-03-06T10:11:10.508Z,0.40
2019-03-06T10:13:46.686Z,0.40
2019-03-06T10:16:31.768Z,0.47
2019-03-06T10:19:14.368Z,0.45
2019-03-06T10:21:42.770Z,0.40
2019-03-06T10:24:11.186Z,0.42
2019-03-06T10:26:39.588Z,0.53
2019-03-06T10:29:08.069Z,0.60
2019-03-06T10:31:38.593Z,0.70
2019-03-06T10:34:06.816Z,0.50
2019-03-06T10:36:35.212Z,0.70
2019-03-06T10:39:04.724Z,0.70
2019-03-06T10:41:33.198Z,0.70
2019-03-06T10:44:01.678Z,0.42
2019-03-06T10:46:30.154Z,0.42
2019-03-06T10:48:58.564Z,0.85
2019-03-06T10:51:26.980Z,0.70
2019-03-06T10:53:55.469Z,0.60
2019-03-06T10:56:23.944Z,0.70
2019-03-06T10:58:52.433Z,0.50
2019-03-06T11:01:21.304Z,0.60
2019-03-06T11:04:07.480Z,0.80
2019-03-06T11:06:35.689Z,0.50
2019-03-06T11:09:07.662Z,0.68
2019-03-06T11:11:36.057Z,0.62
2019-03-06T11:14:06.693Z,0.60
2019-03-06T11:16:40.952Z,0.60
2019-03-06T11:19:06.504Z,0.78
2019-03-06T11:21:54.316Z,0.50
2019-03-06T11:24:22.808Z,0.75
2019-03-06T11:26:51.346Z,0.45
2019-03-06T11:29:19.979Z,0.50
2019-03-06T11:31:48.391Z,0.53
2019-03-06T11:34:17.392Z,0.40
2019-03-06T11:36:45.474Z,0.50
2019-03-06T11:39:14.036Z,0.70
2019-03-06T11:41:42.187Z,0.45
2019-03-06T11:44:11.009Z,0.47
2019-03-06T11:46:39.476Z,0.50
2019-03-06T11:49:07.970Z,0.50
2019-03-06T11:51:36.456Z,0.50
2019-03-06T11:54:05.499Z,0.60
2019-03-06T11:56:34.644Z,0.30
2019-03-06T11:59:03.204Z,0.40
2019-03-06T12:01:32.736Z,0.40
2019-03-06T12:04:01.212Z,0.53
2019-03-06T12:06:29.284Z,0.47
2019-03-06T12:08:57.702Z,0.60
2019-03-06T12:11:26.577Z,0.40
2019-03-06T12:13:55.068Z,0.50
2019-03-06T12:16:23.545Z,0.85
2019-03-06T12:18:51.948Z,0.60
2019-03-06T12:21:20.357Z,0.40
2019-03-06T12:23:48.775Z,0.50
2019-03-06T12:26:17.189Z,0.55
2019-03-06T12:28:46.045Z,0.45
2019-03-06T12:31:14.464Z,0.80
2019-03-06T12:33:42.945Z,0.60
2019-03-06T12:36:11.366Z,0.70
2019-03-06T12:38:40.274Z,0.50
2019-03-06T12:41:08.753Z,0.80
2019-03-06T12:43:36.820Z,0.60
2019-03-06T12:46:08.308Z,0.45
2019-03-06T12:48:36.720Z,0.65
2019-03-06T12:51:05.136Z,0.65
2019-03-06T12:53:33.532Z,0.60
2019-03-06T12:56:02.220Z,0.80
2019-03-06T12:58:30.624Z,0.60
2019-03-06T13:00:59.039Z,0.70
2019-03-06T13:03:27.436Z,0.42
2019-03-06T13:05:55.853Z,0.62
2019-03-06T13:08:24.355Z,0.60
2019-03-06T13:10:52.900Z,0.60
2019-03-06T13:13:21.303Z,0.93
2019-03-06T13:15:49.858Z,0.65
2019-03-06T13:18:18.332Z,0.65
2019-03-06T13:20:46.736Z,0.78
2019-03-06T13:23:15.205Z,0.45
2019-03-06T13:25:43.602Z,0.68
2019-03-06T13:28:12.295Z,0.80
2019-03-06T13:30:41.011Z,0.80
2019-03-06T13:33:11.064Z,0.70
2019-03-06T13:35:40.440Z,0.85
2019-03-06T13:38:08.848Z,0.70
2019-03-06T13:40:37.252Z,1.52
2019-03-06T13:43:05.482Z,0.70
2019-03-06T13:45:33.977Z,0.50
2019-03-06T13:48:02.392Z,0.53
2019-03-06T13:50:30.788Z,0.75
2019-03-06T13:52:59.275Z,0.60
2019-03-06T13:55:27.681Z,0.60
2019-03-06T13:57:56.604Z,0.55
2019-03-06T14:00:25.376Z,0.60
2019-03-06T14:02:54.027Z,1.20
2019-03-06T14:05:23.538Z,0.80
2019-03-06T14:07:56.226Z,0.82
2019-03-06T14:10:23.705Z,0.60
2019-03-06T14:12:52.246Z,1.00
2019-03-06T14:15:21.467Z,0.70
2019-03-06T14:17:50.150Z,0.60
2019-03-06T14:20:23.180Z,0.85
2019-03-06T14:22:52.034Z,0.80
2019-03-06T14:25:21.282Z,0.82
2019-03-06T14:27:49.805Z,0.62
2019-03-06T14:30:23.635Z,0.85
2019-03-06T14:32:52.580Z,0.60
2019-03-06T14:35:21.324Z,0.88
2019-03-06T14:37:49.755Z,0.72
2019-03-06T14:40:29.989Z,0.90
2019-03-06T14:42:59.978Z,0.90
2019-03-06T14:45:28.225Z,0.88
2019-03-06T14:47:57.027Z,1.45
2019-03-06T14:50:25.807Z,0.80
2019-03-06T14:52:54.327Z,0.90
2019-03-06T14:55:22.885Z,0.65
2019-03-06T14:57:50.944Z,0.70
2019-03-06T15:00:20.982Z,1.10
2019-03-06T15:02:49.452Z,0.78
2019-03-06T15:05:18.800Z,0.68
2019-03-06T15:07:47.740Z,0.57
2019-03-06T15:10:17.308Z,0.90
2019-03-06T15:12:45.705Z,0.72
2019-03-06T15:15:15.338Z,0.90
2019-03-06T15:17:43.960Z,1.20
2019-03-06T15:20:17.938Z,1.00
2019-03-06T15:22:47.446Z,1.05
2019-03-06T15:25:18.765Z,1.12
2019-03-06T15:27:47.324Z,1.07
2019-03-06T15:30:17.981Z,0.90
2019-03-06T15:32:46.822Z,1.12
2019-03-06T15:35:15.356Z,0.90
2019-03-06T15:37:44.399Z,0.82
2019-03-06T15:40:28.213Z,0.90
2019-03-06T15:42:56.358Z,0.88
2019-03-06T15:45:26.858Z,1.67
2019-03-06T15:47:55.537Z,0.70
2019-03-06T15:50:24.038Z,0.90
2019-03-06T15:52:52.445Z,1.17
2019-03-06T15:55:25.826Z,1.10
2019-03-06T15:57:54.409Z,1.15
2019-03-06T16:00:27.575Z,0.88
2019-03-06T16:02:57.293Z,1.30
2019-03-06T16:05:25.908Z,0.95
2019-03-06T16:07:55.748Z,1.00
2019-03-06T16:10:23.836Z,1.20
2019-03-06T16:12:52.318Z,1.20
2019-03-06T16:15:21.212Z,1.07
2019-03-06T16:17:49.613Z,1.35
2019-03-06T16:20:19.269Z,1.30
2019-03-06T16:22:48.700Z,1.05
2019-03-06T16:25:17.453Z,1.25
2019-03-06T16:27:45.526Z,1.42
2019-03-06T16:30:17.843Z,1.05
2019-03-06T16:32:45.920Z,1.25
2019-03-06T16:35:15.276Z,1.25
2019-03-06T16:37:44.480Z,1.10
2019-03-06T16:40:15.341Z,1.10
2019-03-06T16:42:43.980Z,1.05
2019-03-06T16:45:12.836Z,2.05
2019-03-06T16:47:41.245Z,1.07
2019-03-06T16:50:16.323Z,1.12
2019-03-06T16:52:45.637Z,1.27
2019-03-06T16:55:22.128Z,1.20
2019-03-06T16:57:50.543Z,1.25
2019-03-06T17:00:24.864Z,1.07
2019-03-06T17:02:53.614Z,1.30
2019-03-06T17:05:23.064Z,1.17
2019-03-06T17:08:10.903Z,0.82
2019-03-06T17:10:39.383Z,1.05
2019-03-06T17:13:08.235Z,1.37
2019-03-06T17:15:36.849Z,1.10
2019-03-06T17:18:05.070Z,1.40
2019-03-06T17:20:37.403Z,1.00
2019-03-06T17:23:06.749Z,1.47
2019-03-06T17:25:34.989Z,1.72
2019-03-06T17:28:03.128Z,1.17
2019-03-06T17:30:33.965Z,1.00
2019-03-06T17:33:13.784Z,1.02
2019-03-06T17:35:42.273Z,1.47
2019-03-06T17:38:15.213Z,1.25
2019-03-06T17:40:44.240Z,1.60
2019-03-06T17:45:41.986Z,1.42
2019-03-06T17:48:10.860Z,1.37
2019-03-06T17:50:39.350Z,2.12
2019-03-06T17:53:07.822Z,2.10
2019-03-06T17:55:36.305Z,1.50
2019-03-06T17:58:05.284Z,1.47
2019-03-06T18:00:35.783Z,1.00
2019-03-06T18:03:04.704Z,1.27
2019-03-06T18:05:33.115Z,1.40
2019-03-06T18:08:01.868Z,1.30
2019-03-06T18:10:30.336Z,1.20
2019-03-06T18:12:58.743Z,1.57
2019-03-06T18:15:27.449Z,2.42
2019-03-06T18:17:55.858Z,2.33
2019-03-06T18:20:24.269Z,1.35
2019-03-06T18:22:52.685Z,1.55
2019-03-06T18:25:24.210Z,1.40
2019-03-06T18:27:52.749Z,1.52
2019-03-06T18:30:21.321Z,1.47
2019-03-06T18:32:49.798Z,1.80
2019-03-06T18:35:21.880Z,1.87
2019-03-06T18:37:50.840Z,1.62
2019-03-06T18:40:23.742Z,2.15
2019-03-06T18:42:52.223Z,2.35
2019-03-06T18:45:21.540Z,2.70
2019-03-06T18:47:50.025Z,1.92
2019-03-06T18:50:20.133Z,1.65
2019-03-06T18:52:48.285Z,1.50
2019-03-06T18:55:16.922Z,1.25
2019-03-06T18:57:45.400Z,1.60
2019-03-06T19:00:30.611Z,1.50
2019-03-06T19:02:59.372Z,1.50
2019-03-06T19:05:27.791Z,1.62
2019-03-06T19:07:56.258Z,2.27
2019-03-06T19:10:25.492Z,1.80
2019-03-06T19:12:54.055Z,1.55
2019-03-06T19:15:24.760Z,1.77
2019-03-06T19:17:53.612Z,2.00
2019-03-06T19:20:22.391Z,1.77
2019-03-06T19:22:52.203Z,1.70
2019-03-06T19:25:20.434Z,2.17
2019-03-06T19:27:48.795Z,1.87
2019-03-06T19:30:18.927Z,2.10
2019-03-06T19:32:47.696Z,2.20
2019-03-06T19:35:17.128Z,2.10
2019-03-06T19:37:45.285Z,2.17
2019-03-06T19:40:14.539Z,2.35
2019-03-06T19:42:43.205Z,2.15
2019-03-06T19:45:14.539Z,2.75
2019-03-06T19:47:43.008Z,2.35
2019-03-06T19:50:14.553Z,2.20
2019-03-06T19:52:42.696Z,2.20
2019-03-06T19:55:12.300Z,2.33
2019-03-06T19:57:58.464Z,1.92
2019-03-06T20:00:29.497Z,1.77
2019-03-06T20:02:58.626Z,1.92
2019-03-06T20:05:34.749Z,1.40
2019-03-06T20:08:05.374Z,1.30
2019-03-06T20:10:34.123Z,1.32
2019-03-06T20:13:02.200Z,1.65
2019-03-06T20:15:30.608Z,1.40
2019-03-06T20:17:59.049Z,1.47
2019-03-06T20:20:27.112Z,1.15
2019-03-06T20:22:55.730Z,1.67
2019-03-06T20:25:23.791Z,1.17
2019-03-06T20:27:53.394Z,1.10
2019-03-06T20:30:25.298Z,1.10
2019-03-06T20:32:53.980Z,1.10
2019-03-06T20:35:26.264Z,1.20
2019-03-06T20:38:14.056Z,1.07
2019-03-06T20:40:42.581Z,1.20
2019-03-06T20:43:11.065Z,1.05
2019-03-06T20:45:39.459Z,0.90
2019-03-06T20:48:07.873Z,4.62
2019-03-06T20:50:36.654Z,1.22
2019-03-06T20:53:04.760Z,4.08
2019-03-06T20:55:33.233Z,18.10
2019-03-06T20:58:01.925Z,28.40
2019-03-06T21:00:30.336Z,23.27
2019-03-06T21:02:58.763Z,9.95
2019-03-06T21:05:27.159Z,11.78
2019-03-06T21:07:55.241Z,2.77
2019-03-06T21:10:23.651Z,1.20
2019-03-06T21:12:52.198Z,1.22
2019-03-06T21:15:21.729Z,1.50
2019-03-06T21:17:50.208Z,1.32
2019-03-06T21:20:23.233Z,1.20
2019-03-06T21:22:51.778Z,0.90
2019-03-06T21:25:23.153Z,0.90
2019-03-06T21:27:51.504Z,1.07
2019-03-06T21:30:29.850Z,0.90
2019-03-06T21:32:58.325Z,1.30
2019-03-06T21:35:26.817Z,1.20
2019-03-06T21:37:54.954Z,1.30
2019-03-06T21:40:23.403Z,0.93
2019-03-06T21:42:52.038Z,0.70
2019-03-06T21:45:20.579Z,1.07
2019-03-06T21:47:48.659Z,0.70
2019-03-06T21:50:17.313Z,0.78
2019-03-06T21:52:45.784Z,0.78
2019-03-06T21:55:16.010Z,0.78
2019-03-06T21:57:44.712Z,0.72
2019-03-06T22:00:18.953Z,0.70
2019-03-06T22:02:47.503Z,1.00
2019-03-06T22:05:16.083Z,0.90
2019-03-06T22:07:44.547Z,1.10
2019-03-06T22:10:16.203Z,0.80
2019-03-06T22:12:44.412Z,0.72
2019-03-06T22:15:20.048Z,0.90
2019-03-06T22:17:48.254Z,0.57
2019-03-06T22:20:16.335Z,0.75
2019-03-06T22:22:44.559Z,0.82
2019-03-06T22:25:16.862Z,0.80
2019-03-06T22:27:45.385Z,1.10
2019-03-06T22:30:19.040Z,0.57
2019-03-06T22:32:47.467Z,0.62
2019-03-06T22:35:16.301Z,0.65
2019-03-06T22:37:44.764Z,0.80
2019-03-06T22:40:17.076Z,0.60
2019-03-06T22:42:45.608Z,0.80
2019-03-06T22:45:15.848Z,0.82
2019-03-06T22:47:44.248Z,0.70
2019-03-06T22:50:13.498Z,0.75
2019-03-06T22:53:01.244Z,0.82
2019-03-06T22:55:29.751Z,0.82
2019-03-06T22:57:58.230Z,0.68
2019-03-06T23:00:36.770Z,0.90
2019-03-06T23:03:05.810Z,0.90
2019-03-06T23:05:37.732Z,0.90
2019-03-06T23:08:06.153Z,0.65
2019-03-06T23:10:34.604Z,0.70
2019-03-06T23:13:03.094Z,0.82
2019-03-06T23:15:31.515Z,0.88
2019-03-06T23:18:00.203Z,0.80
2019-03-06T23:20:28.595Z,0.90
2019-03-06T23:22:57.020Z,0.80
2019-03-06T23:25:25.419Z,1.00
2019-03-06T23:27:53.825Z,0.93
2019-03-06T23:30:22.376Z,0.85
2019-03-06T23:32:51.069Z,2.25
2019-03-06T23:35:19.472Z,0.75
2019-03-06T23:37:48.011Z,0.85
2019-03-06T23:40:16.413Z,0.85
2019-03-06T23:42:44.961Z,0.80
2019-03-06T23:45:13.291Z,0.80
2019-03-06T23:47:41.668Z,1.35
2019-03-06T23:50:11.760Z,0.80
2019-03-06T23:52:56.542Z,0.60
2019-03-06T23:55:25.850Z,0.70
2019-03-06T23:57:54.705Z,0.78
